Iron Mountain, MI

5:44 AM CDT on August 29, 2016 (GMT -0500)
Timberstone | | Change Station

Elev 1158 ft 45.84 °N, 88.08 °W | Updated 18 seconds ago

Fog
Fog
61.0 °F
Feels Like 61.0 °F
N
0.0
Wind Variable Wind from East

Today
High -- | Low -- °F
--% Chance of Precip.
Yesterday
High -- | Low -- °F
Precip. -- in
Pressure 30.25 in
Visibility 0.5 miles
Clouds
Dew Point 60 °F
Humidity 95%
Rainfall 0.00 in
Snow Depth Not available.
6:10 AM 7:34 PM
Waning Crescent, 9% visible
SPECI KIMT 291039Z AUTO 15004KT 1/2SM FG VV001 16/16 A3025 RMK AO2 T01610156
Pressure 30.25 in
Visibility 0.5 miles
Clouds
Dew Point 60 °F
Humidity 95%
Rainfall 0.00 in
Snow Depth Not available.
6:10 AM 7:34 PM
Waning Crescent, 9% visible
SPECI KIMT 291039Z AUTO 15004KT 1/2SM FG VV001 16/16 A3025 RMK AO2 T01610156

10-Day Weather Forecast

Almanac

Astronomy

Aug. 29, 2016 Rise Set
Actual Time
Civil Twilight
Nautical Twilight
Astronomical Twilight
Moon
Length of Visible Light
Length of Day
Tomorrow will be .
, % of the Moon is Illuminated

Today's Extremes

State Highs State Lows

Community

WunderPhotos

Upload Photos

1,935,802 photos uploaded!

WunderBlog® & News

Nearby

Air Quality

  Air Quality AQ Index Pollutant
Not available.

Snow Depth

Station Depth Elevation

Earthquake Activity

City Distance Mag. Time & Date
Minimum magnitude displayed is 2.5.

Coastal Water Temperatures

Place Temperature

Stations

Nearby Weather Stations

Station Location Temp. Windchill Dew Point Humidity Wind Precip. Elev Updated Type
                   

Watches & Warnings

There are currently no watches in effect.